createdAt,value
2022-11-24T00:00:42.670Z,94511.31
2022-11-24T00:03:28.654Z,94515.66
2022-11-24T00:06:16.063Z,94523.25
2022-11-24T00:09:03.641Z,94526.56
2022-11-24T00:11:49.859Z,94528.00
2022-11-24T00:14:36.327Z,94531.50
2022-11-24T00:17:22.486Z,94524.06
2022-11-24T00:20:09.196Z,94518.16
2022-11-24T00:22:56.079Z,94533.13
2022-11-24T00:25:42.113Z,94538.91
2022-11-24T00:28:28.137Z,94539.97
2022-11-24T00:31:22.922Z,94544.88
2022-11-24T00:34:13.803Z,94544.66
2022-11-24T00:37:00.019Z,94549.22
2022-11-24T00:39:46.105Z,94546.53
2022-11-24T00:42:32.160Z,94545.91
2022-11-24T00:45:18.079Z,94550.03
2022-11-24T00:48:04.153Z,94548.34
2022-11-24T00:50:58.483Z,94555.81
2022-11-24T00:53:45.277Z,94563.41
2022-11-24T00:56:31.526Z,94559.31
2022-11-24T00:59:17.387Z,94560.13
2022-11-24T01:02:03.473Z,94552.31
2022-11-24T01:04:49.439Z,94533.63
2022-11-24T01:07:35.829Z,94559.31
2022-11-24T01:10:21.679Z,94567.56
2022-11-24T01:13:07.509Z,94558.06
2022-11-24T01:15:53.537Z,94571.88
2022-11-24T01:18:39.362Z,94569.44
2022-11-24T01:21:25.312Z,94565.13
2022-11-24T01:24:11.557Z,94562.59
2022-11-24T01:26:57.577Z,94553.34
2022-11-24T01:29:43.421Z,94545.38
2022-11-24T01:32:29.423Z,94566.56
2022-11-24T01:35:15.503Z,94581.59
2022-11-24T01:38:01.383Z,94572.94
2022-11-24T01:40:47.297Z,94568.41
2022-11-24T01:43:33.754Z,94566.97
2022-11-24T01:46:33.631Z,94573.97
2022-11-24T01:49:39.864Z,94565.53
2022-11-24T01:52:36.363Z,94569.06
2022-11-24T01:55:28.779Z,94553.47
2022-11-24T01:58:19.363Z,94566.00
2022-11-24T02:01:05.555Z,94556.81
2022-11-24T02:03:52.294Z,94576.75
2022-11-24T02:06:40.091Z,94574.69
2022-11-24T02:09:56.108Z,94580.28
2022-11-24T02:12:44.421Z,94576.16
2022-11-24T02:15:30.380Z,94579.47
2022-11-24T02:18:16.652Z,94586.91
2022-11-24T02:21:02.479Z,94577.66
2022-11-24T02:23:51.075Z,94565.97
2022-11-24T02:26:45.879Z,94584.47
2022-11-24T02:29:31.876Z,94578.50
2022-11-24T02:32:18.532Z,94581.00
2022-11-24T02:35:06.240Z,94579.34
2022-11-24T02:37:52.240Z,94585.06
2022-11-24T02:40:38.131Z,94584.47
2022-11-24T02:43:24.497Z,94585.28
2022-11-24T02:46:10.948Z,94583.84
2022-11-24T02:48:57.283Z,94585.28
2022-11-24T02:51:43.454Z,94586.53
2022-11-24T02:54:29.286Z,94573.44
2022-11-24T02:57:15.420Z,94594.41
2022-11-24T03:00:01.616Z,94598.50
2022-11-24T03:02:47.635Z,94590.88
2022-11-24T03:05:33.931Z,94585.53
2022-11-24T03:08:19.831Z,94587.00
2022-11-24T03:11:05.988Z,94586.00
2022-11-24T03:13:52.651Z,94599.31
2022-11-24T03:16:38.912Z,94602.81
2022-11-24T03:19:24.692Z,94602.22
2022-11-24T03:22:12.828Z,94603.47
2022-11-24T03:24:59.358Z,94613.59
2022-11-24T03:27:45.991Z,94611.53
2022-11-24T03:30:32.045Z,94626.16
2022-11-24T03:33:18.071Z,94620.78
2022-11-24T03:36:05.259Z,94612.78
2022-11-24T03:38:51.209Z,94635.63
2022-11-24T03:41:37.292Z,94640.38
2022-11-24T03:44:23.462Z,94624.75
2022-11-24T03:47:11.051Z,94629.28
2022-11-24T03:49:57.300Z,94637.94
2022-11-24T03:52:43.639Z,94637.94
2022-11-24T03:55:29.817Z,94639.00
2022-11-24T03:58:16.037Z,94637.75
2022-11-24T04:01:02.072Z,94642.72
2022-11-24T04:03:47.987Z,94641.72
2022-11-24T04:06:34.144Z,94642.94
2022-11-24T04:09:20.091Z,94661.25
2022-11-24T04:12:24.975Z,94652.59
2022-11-24T04:15:16.025Z,94653.88
2022-11-24T04:18:01.954Z,94674.63
2022-11-24T04:20:52.711Z,94670.75
2022-11-24T04:23:38.835Z,94668.28
2022-11-24T04:26:24.873Z,94674.25
2022-11-24T04:29:11.024Z,94657.22
2022-11-24T04:31:57.310Z,94676.53
2022-11-24T04:34:43.755Z,94679.00
2022-11-24T04:37:29.853Z,94675.09
2022-11-24T04:40:16.249Z,94685.19
2022-11-24T04:43:02.288Z,94694.66
2022-11-24T04:45:48.077Z,94688.47
2022-11-24T04:48:34.001Z,94702.47
2022-11-24T04:51:19.907Z,94708.03
2022-11-24T04:54:07.546Z,94701.22
2022-11-24T04:56:53.522Z,94712.78
2022-11-24T04:59:39.339Z,94707.84
2022-11-24T05:02:25.155Z,94719.97
2022-11-24T05:05:11.224Z,94725.09
2022-11-24T05:07:59.943Z,94726.97
2022-11-24T05:10:46.046Z,94732.53
2022-11-24T05:13:31.846Z,94744.66
2022-11-24T05:16:17.742Z,94733.13
2022-11-24T05:19:03.830Z,94744.66
2022-11-24T05:21:49.930Z,94742.00
2022-11-24T05:24:36.004Z,94760.91
2022-11-24T05:27:22.402Z,94765.25
2022-11-24T05:30:08.859Z,94778.41
2022-11-24T05:32:55.199Z,94778.00
2022-11-24T05:35:41.332Z,94787.06
2022-11-24T05:38:27.203Z,94782.91
2022-11-24T05:41:13.087Z,94780.84
2022-11-24T05:43:59.193Z,94781.28
2022-11-24T05:46:45.172Z,94800.00
2022-11-24T05:49:30.932Z,94809.69
2022-11-24T05:52:16.942Z,94818.31
2022-11-24T05:55:03.763Z,94816.88
2022-11-24T05:57:49.667Z,94821.41
2022-11-24T06:00:36.750Z,94826.94
2022-11-24T06:03:23.702Z,94844.63
2022-11-24T06:06:10.896Z,94837.44
2022-11-24T06:08:56.729Z,94844.84
2022-11-24T06:11:43.338Z,94856.56
2022-11-24T06:14:29.529Z,94846.44
2022-11-24T06:17:15.342Z,94875.88
2022-11-24T06:20:01.384Z,94863.34
2022-11-24T06:22:48.318Z,94878.56
2022-11-24T06:25:34.215Z,94880.22
2022-11-24T06:35:26.477Z,94899.56
2022-11-24T06:38:12.558Z,94900.25
2022-11-24T06:41:00.003Z,94905.22
2022-11-24T06:43:46.329Z,94906.94
2022-11-24T06:46:32.904Z,94913.56
2022-11-24T06:49:19.234Z,94914.22
2022-11-24T06:52:05.146Z,94910.50
2022-11-24T06:54:50.976Z,94922.94
2022-11-24T06:57:36.862Z,94933.22
2022-11-24T07:00:22.919Z,94932.81
2022-11-24T07:03:15.380Z,94941.88
2022-11-24T07:06:01.386Z,94944.91
2022-11-24T07:08:47.290Z,94939.41
2022-11-24T07:11:33.462Z,94946.00
2022-11-24T07:14:19.491Z,94944.97
2022-11-24T07:17:05.464Z,94943.56
2022-11-24T07:19:51.320Z,94967.84
2022-11-24T07:22:37.143Z,94971.53
2022-11-24T07:25:26.580Z,94972.75
2022-11-24T07:28:12.825Z,94974.81
2022-11-24T07:30:59.038Z,94978.09
2022-11-24T07:33:52.605Z,94975.66
2022-11-24T07:36:38.466Z,94984.28
2022-11-24T07:39:24.354Z,94979.09
2022-11-24T07:42:11.454Z,94979.28
2022-11-24T07:44:57.393Z,94981.34
2022-11-24T07:47:43.291Z,94985.03
2022-11-24T07:50:29.245Z,94984.81
2022-11-24T07:53:15.371Z,94989.31
2022-11-24T07:56:02.909Z,94984.84
2022-11-24T07:58:52.851Z,94989.53
2022-11-24T08:01:39.370Z,94988.94
2022-11-24T08:04:25.511Z,94985.47
2022-11-24T08:07:11.349Z,94977.88
2022-11-24T08:09:57.092Z,94986.09
2022-11-24T08:12:44.057Z,94989.41
2022-11-24T08:15:30.048Z,94996.81
2022-11-24T08:18:15.938Z,95000.09
2022-11-24T08:21:02.362Z,94996.81
2022-11-24T08:23:48.081Z,95017.84
2022-11-24T08:26:34.120Z,95012.25
2022-11-24T08:29:20.088Z,95021.78
2022-11-24T08:32:06.070Z,95002.56
2022-11-24T08:34:56.343Z,95023.19
2022-11-24T08:37:45.814Z,95000.09
2022-11-24T08:40:32.326Z,95018.03
2022-11-24T08:43:18.599Z,95016.84
2022-11-24T08:46:10.534Z,95031.28
2022-11-24T08:48:56.610Z,95029.22
2022-11-24T08:51:43.460Z,95028.81
2022-11-24T08:54:29.576Z,95028.59
2022-11-24T08:57:21.460Z,95031.13
2022-11-24T09:00:09.709Z,95032.97
2022-11-24T09:02:59.059Z,95031.56
2022-11-24T09:05:53.057Z,95026.41
2022-11-24T09:08:40.035Z,95031.16
2022-11-24T09:11:27.135Z,95032.00
2022-11-24T09:14:13.293Z,95044.16
2022-11-24T09:16:59.642Z,95035.31
2022-11-24T09:19:45.661Z,95041.28
2022-11-24T09:22:31.930Z,95032.41
2022-11-24T09:25:17.862Z,95038.19
2022-11-24T09:28:04.351Z,95029.78
2022-11-24T09:30:51.068Z,95033.28
2022-11-24T09:33:37.557Z,95041.53
2022-11-24T09:36:23.996Z,95022.38
2022-11-24T09:39:10.910Z,95038.88
2022-11-24T09:42:12.960Z,95034.75
2022-11-24T09:45:56.974Z,95030.41
2022-11-24T09:48:40.027Z,95032.25
2022-11-24T09:51:29.405Z,95041.31
2022-11-24T09:54:19.824Z,95035.75
2022-11-24T09:57:07.178Z,95039.28
2022-11-24T09:59:55.820Z,95044.22
2022-11-24T10:02:41.654Z,95035.75
2022-11-24T10:05:29.460Z,95053.72
2022-11-24T10:08:21.403Z,95046.69
2022-11-24T10:11:14.043Z,95038.66
2022-11-24T10:14:21.533Z,95020.31
2022-11-24T10:17:07.630Z,95023.84
2022-11-24T10:20:09.632Z,95019.50
2022-11-24T10:23:18.717Z,95021.78
2022-11-24T10:26:09.073Z,95006.34
2022-11-24T10:28:56.477Z,95022.22
2022-11-24T10:31:43.815Z,95012.91
2022-11-24T10:34:34.601Z,95004.69
2022-11-24T10:37:28.835Z,95031.88
2022-11-24T10:41:05.451Z,95032.53
2022-11-24T10:43:52.194Z,95023.22
2022-11-24T10:46:39.606Z,95026.31
2022-11-24T10:49:29.300Z,95023.03
2022-11-24T10:52:16.558Z,95034.78
2022-11-24T10:55:04.693Z,95028.19
2022-11-24T10:57:50.689Z,95031.91
2022-11-24T11:00:36.886Z,95032.09
2022-11-24T11:03:33.273Z,95052.69
2022-11-24T11:06:24.840Z,95026.31
2022-11-24T11:09:16.846Z,95055.19
2022-11-24T11:12:42.212Z,95057.25
2022-11-24T11:15:25.996Z,95057.44
2022-11-24T11:18:14.961Z,95065.06
2022-11-24T11:21:02.295Z,95051.50
2022-11-24T11:23:51.612Z,95043.84
2022-11-24T11:26:38.461Z,95051.50
2022-11-24T11:35:39.256Z,95041.81
2022-11-24T11:38:26.591Z,95045.09
2022-11-24T11:41:34.818Z,95056.00
2022-11-24T11:44:44.336Z,95056.66
2022-11-24T11:47:31.528Z,95052.91
2022-11-24T11:50:23.841Z,95046.13
2022-11-24T11:53:11.704Z,95045.06
2022-11-24T11:56:04.113Z,95063.41
2022-11-24T11:59:22.268Z,95063.63
2022-11-24T12:02:17.379Z,95065.50
2022-11-24T12:05:22.539Z,95062.81
2022-11-24T12:08:23.840Z,95064.47
2022-11-24T12:11:26.446Z,95073.94
2022-11-24T12:14:24.673Z,95083.03
2022-11-24T12:17:32.510Z,95075.41
2022-11-24T12:21:00.078Z,95081.78
2022-11-24T12:24:06.110Z,95072.50
2022-11-24T12:27:20.937Z,95086.75
2022-11-24T12:30:13.517Z,95098.69
2022-11-24T12:33:00.335Z,95072.31
2022-11-24T12:35:49.294Z,95098.06
2022-11-24T12:38:50.521Z,95094.59
2022-11-24T12:41:58.417Z,95098.50
2022-11-24T12:45:09.259Z,95104.06
2022-11-24T12:48:06.389Z,95087.34
2022-11-24T12:50:53.932Z,95090.88
2022-11-24T12:53:40.377Z,95077.28
2022-11-24T12:56:31.919Z,95083.44
2022-11-24T12:59:24.082Z,95100.94
2022-11-24T13:02:39.967Z,95109.44
2022-11-24T13:05:33.294Z,95091.91
2022-11-24T13:08:19.873Z,95096.22
2022-11-24T13:11:21.292Z,95108.00
2022-11-24T13:14:15.323Z,95104.28
2022-11-24T13:17:28.817Z,95108.19
2022-11-24T13:20:18.938Z,95125.72
2022-11-24T13:23:07.628Z,95125.06
2022-11-24T13:26:27.272Z,95137.66
2022-11-24T13:29:28.878Z,95145.28
2022-11-24T13:32:15.148Z,95151.06
2022-11-24T13:35:13.500Z,95144.81
2022-11-24T13:37:59.548Z,95151.22
2022-11-24T13:41:06.218Z,95156.78
2022-11-24T13:44:15.010Z,95161.94
2022-11-24T13:47:05.580Z,95165.00
2022-11-24T13:49:52.621Z,95160.47
2022-11-24T13:53:06.339Z,95152.81
2022-11-24T13:55:59.962Z,95159.59
2022-11-24T13:58:51.337Z,95172.56
2022-11-24T14:01:40.852Z,95158.34
2022-11-24T14:07:34.719Z,95159.97
2022-11-24T14:10:36.250Z,95154.19
2022-11-24T14:13:25.369Z,95146.38
2022-11-24T14:16:17.674Z,95155.44
2022-11-24T14:19:10.064Z,95143.25
2022-11-24T14:21:56.264Z,95162.22
2022-11-24T14:24:45.364Z,95168.19
2022-11-24T14:27:34.180Z,95159.75
2022-11-24T14:30:22.693Z,95151.91
2022-11-24T14:33:16.036Z,95156.66
2022-11-24T14:36:02.220Z,95169.63
2022-11-24T14:38:48.291Z,95170.47
2022-11-24T14:41:34.353Z,95174.34
2022-11-24T14:44:27.154Z,95178.69
2022-11-24T14:47:15.141Z,95188.53
2022-11-24T14:50:12.885Z,95177.84
2022-11-24T14:52:59.279Z,95162.16
2022-11-24T14:55:45.649Z,95192.28
2022-11-24T14:58:36.510Z,95187.75
2022-11-24T15:01:28.241Z,95197.84
2022-11-24T15:07:32.450Z,95189.38
2022-11-24T15:10:33.964Z,95187.66
2022-11-24T15:13:23.204Z,95196.56
2022-11-24T15:16:16.364Z,95206.25
2022-11-24T15:19:03.085Z,95216.34
2022-11-24T15:21:49.125Z,95202.72
2022-11-24T15:24:49.321Z,95214.25
2022-11-24T15:27:35.604Z,95220.22
2022-11-24T15:30:21.443Z,95239.41
2022-11-24T15:33:17.165Z,95223.91
2022-11-24T15:36:03.444Z,95236.09
2022-11-24T15:38:49.624Z,95238.75
2022-11-24T15:41:35.718Z,95244.97
2022-11-24T15:44:21.925Z,95230.47
2022-11-24T15:47:08.702Z,95245.97
2022-11-24T15:49:54.910Z,95238.53
2022-11-24T15:52:41.770Z,95250.09
2022-11-24T15:55:28.088Z,95249.25
2022-11-24T15:58:14.602Z,95250.91
2022-11-24T16:01:00.861Z,95257.09
2022-11-24T16:03:48.187Z,95250.28
2022-11-24T16:06:35.301Z,95251.75
2022-11-24T16:09:21.348Z,95237.69
2022-11-24T16:12:10.577Z,95244.91
2022-11-24T16:14:56.905Z,95245.75
2022-11-24T16:17:42.679Z,95247.41
2022-11-24T16:20:28.580Z,95240.38
2022-11-24T16:23:14.526Z,95251.50
2022-11-24T16:26:00.400Z,95257.28
2022-11-24T16:28:46.497Z,95259.94
2022-11-24T16:31:32.964Z,95252.94
2022-11-24T16:34:19.107Z,95246.53
2022-11-24T16:37:05.024Z,95240.13
2022-11-24T16:39:51.252Z,95242.97
2022-11-24T16:42:37.253Z,95256.63
2022-11-24T16:45:23.217Z,95260.53
2022-11-24T16:48:09.103Z,95254.72
2022-11-24T16:50:55.031Z,95261.56
2022-11-24T16:53:41.181Z,95268.91
2022-11-24T16:56:28.633Z,95275.97
2022-11-24T16:59:14.819Z,95279.25
2022-11-24T17:02:01.302Z,95285.88
2022-11-24T17:04:47.214Z,95278.19
2022-11-24T17:07:33.501Z,95282.13
2022-11-24T17:10:19.720Z,95287.91
2022-11-24T17:13:05.944Z,95279.63
2022-11-24T17:15:54.326Z,95282.31
2022-11-24T17:18:40.864Z,95287.84
2022-11-24T17:21:27.793Z,95282.06
2022-11-24T17:24:17.662Z,95288.44
2022-11-24T17:27:03.654Z,95297.28
2022-11-24T17:29:49.625Z,95289.59
2022-11-24T17:32:35.754Z,95294.50
2022-11-24T17:35:21.694Z,95294.50
2022-11-24T17:38:07.468Z,95280.03
2022-11-24T17:40:53.504Z,95307.84
2022-11-24T17:43:39.647Z,95304.88
2022-11-24T17:46:27.105Z,95316.81
2022-11-24T17:49:13.317Z,95316.66
2022-11-24T17:51:59.296Z,95322.00
2022-11-24T17:54:46.759Z,95315.00
2022-11-24T17:57:32.924Z,95308.75
2022-11-24T18:00:19.081Z,95295.25
2022-11-24T18:03:05.769Z,95315.31
2022-11-24T18:05:51.748Z,95316.53
2022-11-24T18:08:38.798Z,95303.28
2022-11-24T18:11:31.368Z,95321.44
2022-11-24T18:14:18.215Z,95312.09
2022-11-24T18:17:04.470Z,95302.34
2022-11-24T18:19:50.658Z,95313.69
2022-11-24T18:23:04.055Z,95313.47
2022-11-24T18:25:42.871Z,95315.91
2022-11-24T18:28:29.036Z,95334.25
2022-11-24T18:31:16.501Z,95338.13
2022-11-24T18:34:04.283Z,95335.63
2022-11-24T18:36:52.608Z,95330.66
2022-11-24T18:39:42.136Z,95336.78
2022-11-24T18:42:29.114Z,95334.63
2022-11-24T18:45:15.131Z,95335.66
2022-11-24T18:48:01.044Z,95337.22
2022-11-24T18:50:54.673Z,95334.94
2022-11-24T18:53:42.699Z,95334.69
2022-11-24T18:56:29.479Z,95326.00
2022-11-24T18:59:15.515Z,95344.53
2022-11-24T19:02:01.384Z,95343.25
2022-11-24T19:04:47.485Z,95344.91
2022-11-24T19:07:33.785Z,95325.47
2022-11-24T19:10:19.608Z,95315.00
2022-11-24T19:13:05.689Z,95341.78
2022-11-24T19:15:52.047Z,95334.97
2022-11-24T19:18:38.133Z,95327.53
2022-11-24T19:21:24.029Z,95305.16
2022-11-24T19:24:10.451Z,95340.31
2022-11-24T19:26:56.735Z,95343.00
2022-11-24T19:29:43.293Z,95339.25
2022-11-24T19:32:31.437Z,95343.56
2022-11-24T19:35:17.586Z,95338.22
2022-11-24T19:38:03.832Z,95337.75
2022-11-24T19:40:49.582Z,95347.41
2022-11-24T19:43:35.885Z,95334.00
2022-11-24T19:46:23.040Z,95341.44
2022-11-24T19:49:09.148Z,95340.25
2022-11-24T19:51:55.202Z,95341.75
2022-11-24T19:54:41.618Z,95351.03
2022-11-24T19:57:28.135Z,95349.00
2022-11-24T20:00:15.277Z,95351.41
2022-11-24T20:03:01.645Z,95350.78
2022-11-24T20:05:57.240Z,95348.47
2022-11-24T20:08:43.618Z,95366.59
2022-11-24T20:11:30.229Z,95366.41
2022-11-24T20:14:18.934Z,95376.47
2022-11-24T20:17:06.769Z,95386.13
2022-11-24T20:19:52.685Z,95377.19
2022-11-24T20:22:38.617Z,95388.16
2022-11-24T20:25:25.164Z,95384.84
2022-11-24T20:28:11.712Z,95387.31
2022-11-24T20:31:01.927Z,95390.38
2022-11-24T20:33:49.386Z,95387.31
2022-11-24T20:36:37.668Z,95377.94
2022-11-24T20:39:26.457Z,95386.69
2022-11-24T20:42:12.533Z,95381.63
2022-11-24T20:45:00.879Z,95402.91
2022-11-24T20:47:46.799Z,95409.88
2022-11-24T20:50:36.983Z,95369.94
2022-11-24T20:53:23.009Z,95402.63
2022-11-24T20:56:29.013Z,95403.44
2022-11-24T20:59:24.382Z,95410.91
2022-11-24T21:02:11.364Z,95418.53
2022-11-24T21:04:57.493Z,95415.88
2022-11-24T21:07:43.564Z,95420.56
2022-11-24T21:10:29.641Z,95415.22
2022-11-24T21:13:15.765Z,95431.25
2022-11-24T21:16:11.610Z,95422.59
2022-11-24T21:18:59.981Z,95425.72
2022-11-24T21:21:47.700Z,95424.25
2022-11-24T21:24:34.883Z,95439.91
2022-11-24T21:27:21.366Z,95442.56
2022-11-24T21:30:09.680Z,95438.91
2022-11-24T21:32:56.222Z,95428.78
2022-11-24T21:35:42.533Z,95436.25
2022-11-24T21:38:28.767Z,95451.41
2022-11-24T21:41:14.722Z,95455.75
2022-11-24T21:44:00.890Z,95449.97
2022-11-24T21:46:52.599Z,95432.34
2022-11-24T21:49:40.090Z,95443.31
2022-11-24T21:52:26.221Z,95454.00
2022-11-24T21:55:12.106Z,95457.69
2022-11-24T21:57:58.288Z,95458.31
2022-11-24T22:00:44.263Z,95463.84
2022-11-24T22:03:30.096Z,95443.78
2022-11-24T22:06:17.868Z,95454.63
2022-11-24T22:09:03.729Z,95462.38
2022-11-24T22:11:49.910Z,95467.00
2022-11-24T22:14:40.164Z,95466.25
2022-11-24T22:17:30.557Z,95456.09
2022-11-24T22:20:16.858Z,95467.69
2022-11-24T22:23:02.762Z,95459.69
2022-11-24T22:25:48.815Z,95484.25
2022-11-24T22:28:36.001Z,95463.28
2022-11-24T22:31:27.172Z,95488.34
2022-11-24T22:34:13.233Z,95491.38
2022-11-24T22:36:59.085Z,95482.34
2022-11-24T22:39:44.979Z,95487.13
2022-11-24T22:42:30.882Z,95495.75
2022-11-24T22:45:17.000Z,95483.84
2022-11-24T22:48:02.787Z,95494.97
2022-11-24T22:50:48.757Z,95488.44
2022-11-24T22:53:34.585Z,95486.13
2022-11-24T22:56:22.667Z,95485.97
2022-11-24T22:59:08.931Z,95504.25
2022-11-24T23:01:54.793Z,95497.28
2022-11-24T23:04:40.579Z,95495.72
2022-11-24T23:07:26.664Z,95482.81
2022-11-24T23:10:12.683Z,95483.09
2022-11-24T23:12:58.871Z,95505.56
2022-11-24T23:15:44.787Z,95486.78
2022-11-24T23:18:31.460Z,95507.06
2022-11-24T23:21:23.144Z,95514.25
2022-11-24T23:24:10.498Z,95528.03
2022-11-24T23:26:56.464Z,95520.41
2022-11-24T23:29:42.189Z,95506.94
2022-11-24T23:32:28.281Z,95525.84
2022-11-24T23:35:14.298Z,95532.22
2022-11-24T23:38:07.502Z,95498.09
2022-11-24T23:40:58.537Z,95513.56
2022-11-24T23:43:44.876Z,95523.84
2022-11-24T23:46:31.157Z,95519.75
2022-11-24T23:49:16.957Z,95518.03
2022-11-24T23:52:02.898Z,95508.72
2022-11-24T23:54:48.751Z,95528.72
2022-11-24T23:57:34.608Z,95527.34
